Time;durP1;ratioP1;P1;durP2;ratioP2;P2;SDS_P1;SDS_P2;PMS_P1;PMS_P2;Temp;Humidity;BMP_temperature;BMP_pressure;BME280_temperature;BME280_humidity;BME280_pressure;Samples;Min_cycle;Max_cycle;Signal;HPM_P1;HPM_P2
2022/07/07 00:02:22;;;;;;;3.40;2.33;;;17.60;71.90;;;;;;5113966;28;20452;-55
2022/07/07 00:04:50;;;;;;;3.70;2.87;;;17.50;71.80;;;;;;5113893;28;20533;-55
2022/07/07 00:07:17;;;;;;;3.50;3.20;;;17.50;72.10;;;;;;5114082;28;20919;-55
2022/07/07 00:09:44;;;;;;;3.30;3.00;;;17.60;72.00;;;;;;5114352;27;20545;-54
2022/07/07 00:12:11;;;;;;;2.50;2.30;;;17.50;71.80;;;;;;5113779;28;20450;-54
2022/07/07 00:14:40;;;;;;;4.23;2.70;;;17.50;72.30;;;;;;5113961;28;20447;-55
2022/07/07 00:17:07;;;;;;;3.77;2.77;;;17.50;72.40;;;;;;5113847;28;20549;-55
2022/07/07 00:19:39;;;;;;;4.87;2.50;;;17.50;72.00;;;;;;5113559;28;20549;-54
2022/07/07 00:22:06;;;;;;;4.80;3.27;;;17.60;72.20;;;;;;5113680;28;20442;-55
2022/07/07 00:24:34;;;;;;;3.60;2.50;;;17.70;71.50;;;;;;5113964;28;20442;-55
2022/07/07 00:27:01;;;;;;;3.23;2.60;;;17.70;71.20;;;;;;5113558;28;20915;-55
2022/07/07 00:29:28;;;;;;;3.63;2.77;;;17.70;71.60;;;;;;5113896;28;20489;-55
2022/07/07 00:31:57;;;;;;;6.00;2.60;;;17.60;72.10;;;;;;5113629;28;20450;-54
2022/07/07 00:34:24;;;;;;;4.00;2.60;;;17.50;72.20;;;;;;5113946;28;20484;-54
2022/07/07 00:36:51;;;;;;;3.50;2.53;;;17.50;71.70;;;;;;5113703;28;20442;-54
2022/07/07 00:39:18;;;;;;;3.30;3.10;;;17.50;71.80;;;;;;5113451;28;20537;-55
2022/07/07 00:41:46;;;;;;;4.37;2.60;;;17.50;71.10;;;;;;5114046;28;20438;-54
2022/07/07 00:44:13;;;;;;;3.20;2.63;;;17.50;72.10;;;;;;5113267;28;20478;-55
2022/07/07 00:46:45;;;;;;;3.30;3.00;;;17.50;71.50;;;;;;5113543;28;20516;-55
2022/07/07 00:49:14;;;;;;;4.40;2.80;;;17.50;72.10;;;;;;5113716;28;20427;-55
2022/07/07 00:51:42;;;;;;;2.97;2.20;;;17.60;72.60;;;;;;5113752;28;20533;-55
2022/07/07 00:54:11;;;;;;;3.73;2.20;;;17.60;72.60;;;;;;5113698;28;20442;-55
2022/07/07 00:56:39;;;;;;;8.93;2.90;;;17.60;72.30;;;;;;5113363;28;20446;-55
2022/07/07 00:59:07;;;;;;;2.67;2.43;;;17.60;72.20;;;;;;5113594;28;20930;-55
2022/07/07 01:01:37;;;;;;;5.50;2.70;;;17.70;72.20;;;;;;5113634;28;20545;-55
2022/07/07 01:04:06;;;;;;;3.63;2.93;;;17.80;72.30;;;;;;5117552;28;20805;-55
2022/07/07 01:06:35;;;;;;;4.00;3.00;;;17.90;73.20;;;;;;5117093;28;20443;-55
2022/07/07 01:09:03;;;;;;;3.00;2.40;;;17.90;72.40;;;;;;5117173;28;21020;-55
2022/07/07 01:11:46;;;;;;;3.30;2.83;;;18.00;72.90;;;;;;5117129;28;20478;-55
2022/07/07 01:14:13;;;;;;;7.90;3.07;;;18.20;73.00;;;;;;5117492;28;20422;-55
2022/07/07 01:16:40;;;;;;;5.57;2.60;;;18.20;71.90;;;;;;5117072;28;20481;-55
2022/07/07 01:19:08;;;;;;;4.23;2.80;;;18.20;71.90;;;;;;5117401;28;20546;-55
2022/07/07 01:21:44;;;;;;;3.20;2.90;;;18.20;71.10;;;;;;5117365;28;20446;-55
2022/07/07 01:24:13;;;;;;;3.63;2.70;;;18.20;71.50;;;;;;5117460;28;20456;-55
2022/07/07 01:26:40;;;;;;;2.83;2.50;;;18.20;71.90;;;;;;5117197;28;20478;-54
2022/07/07 01:29:07;;;;;;;3.23;2.40;;;;;;;;;;5117150;28;20446;-54
2022/07/07 01:31:34;;;;;;;8.60;2.70;;;18.30;70.80;;;;;;5117210;28;20447;-54
2022/07/07 01:34:01;;;;;;;3.00;2.80;;;18.40;71.60;;;;;;5116673;28;20788;-55
2022/07/07 01:36:29;;;;;;;2.80;2.60;;;18.30;71.50;;;;;;5116641;28;20915;-55
2022/07/07 01:38:56;;;;;;;2.77;2.57;;;18.10;71.50;;;;;;5117118;28;20453;-55
2022/07/07 01:41:24;;;;;;;4.77;3.07;;;18.10;72.90;;;;;;5116375;28;20879;-55
2022/07/07 01:43:51;;;;;;;3.20;2.90;;;18.10;71.90;;;;;;5116801;28;20449;-55
2022/07/07 01:46:19;;;;;;;3.53;2.73;;;18.10;72.20;;;;;;5116420;28;20442;-55
2022/07/07 01:48:46;;;;;;;2.93;2.73;;;18.20;72.30;;;;;;5116333;28;21046;-55
2022/07/07 01:51:13;;;;;;;2.70;2.50;;;18.20;72.20;;;;;;5116302;27;20466;-55
2022/07/07 01:53:40;;;;;;;5.03;2.70;;;18.20;71.50;;;;;;5116481;28;20456;-55
2022/07/07 01:56:08;;;;;;;2.90;2.60;;;17.90;70.90;;;;;;5116176;28;20929;-55
2022/07/07 01:58:37;;;;;;;5.03;3.03;;;17.80;72.00;;;;;;5116573;28;20477;-55
2022/07/07 02:01:04;;;;;;;4.03;2.90;;;17.80;71.90;;;;;;5116429;28;20467;-55
2022/07/07 02:03:31;;;;;;;4.87;2.77;;;17.90;71.70;;;;;;5116140;28;20862;-55
2022/07/07 02:05:58;;;;;;;6.30;2.63;;;17.90;72.40;;;;;;5116679;28;20458;-55
2022/07/07 02:08:25;;;;;;;4.30;2.40;;;17.90;71.60;;;;;;5115982;28;20481;-55
2022/07/07 02:13:39;;;;;;;3.30;3.00;;;17.90;72.40;;;;;;5115869;28;20496;-55
2022/07/07 02:16:06;;;;;;;4.30;3.27;;;17.90;71.60;;;;;;5115927;28;20596;-55
2022/07/07 02:18:36;;;;;;;4.03;3.07;;;17.90;72.40;;;;;;5116482;28;20427;-54
2022/07/07 02:21:04;;;;;;;8.40;3.23;;;17.90;72.40;;;;;;5115796;28;20467;-55
2022/07/07 02:23:32;;;;;;;3.07;2.63;;;17.80;72.00;;;;;;5115906;28;20446;-55
2022/07/07 02:25:59;;;;;;;7.00;2.93;;;17.90;72.70;;;;;;5115928;28;20806;-55
2022/07/07 02:28:26;;;;;;;2.43;2.23;;;17.80;71.80;;;;;;5115793;28;20505;-55
2022/07/07 02:30:55;;;;;;;4.60;2.90;;;17.80;71.90;;;;;;5115464;28;20466;-55
2022/07/07 02:33:23;;;;;;;3.30;2.30;;;17.80;72.40;;;;;;5115466;28;20443;-55
2022/07/07 02:35:51;;;;;;;6.13;2.80;;;17.70;71.60;;;;;;5116030;28;20559;-55
2022/07/07 02:38:18;;;;;;;3.03;2.83;;;17.70;72.60;;;;;;5115890;28;20435;-55
2022/07/07 02:40:46;;;;;;;6.43;2.30;;;17.80;73.40;;;;;;5115665;28;20466;-55
2022/07/07 02:43:13;;;;;;;6.10;3.17;;;17.80;73.40;;;;;;5115585;27;20443;-55
2022/07/07 02:45:41;;;;;;;6.80;2.50;;;17.90;73.70;;;;;;5115475;28;20507;-55
2022/07/07 02:48:10;;;;;;;1.93;1.83;;;17.90;71.50;;;;;;5115259;28;20477;-55
2022/07/07 02:50:37;;;;;;;5.30;2.63;;;17.90;71.20;;;;;;5115072;28;20502;-55
2022/07/07 02:53:05;;;;;;;5.40;2.23;;;17.70;71.00;;;;;;5115409;28;20449;-55
2022/07/07 02:55:33;;;;;;;4.30;3.90;;;17.70;71.50;;;;;;5115327;28;20450;-55
2022/07/07 02:58:00;;;;;;;2.63;1.90;;;17.70;71.30;;;;;;5115313;28;20458;-55
2022/07/07 03:00:28;;;;;;;7.40;2.57;;;17.80;72.30;;;;;;5115167;28;20614;-55
2022/07/07 03:02:56;;;;;;;4.13;2.77;;;17.80;71.60;;;;;;5114898;28;20956;-55
2022/07/07 03:05:25;;;;;;;3.77;2.40;;;17.80;71.60;;;;;;5115346;28;20451;-55
2022/07/07 03:07:52;;;;;;;3.30;2.23;;;17.70;72.10;;;;;;5115052;28;20482;-55
2022/07/07 03:10:19;;;;;;;3.77;2.37;;;17.60;72.00;;;;;;5114982;27;20956;-55
2022/07/07 03:12:46;;;;;;;4.33;2.43;;;17.60;73.00;;;;;;5115166;28;20453;-55
2022/07/07 03:15:13;;;;;;;7.63;2.20;;;17.60;73.70;;;;;;5115725;28;20446;-55
2022/07/07 03:17:43;;;;;;;3.40;2.57;;;17.60;74.10;;;;;;5113546;28;20505;-55
2022/07/07 03:20:11;;;;;;;2.77;2.10;;;17.60;74.50;;;;;;5114534;28;20463;-55
2022/07/07 03:22:39;;;;;;;4.23;3.00;;;17.50;75.00;;;;;;5114844;28;20481;-55
2022/07/07 03:25:08;;;;;;;3.30;2.53;;;17.50;75.60;;;;;;5115406;28;20503;-55
2022/07/07 03:27:36;;;;;;;3.67;2.70;;;17.40;75.80;;;;;;5114701;28;20482;-55
2022/07/07 03:30:04;;;;;;;7.87;2.23;;;17.60;75.40;;;;;;5114353;28;20965;-55
2022/07/07 03:32:32;;;;;;;2.83;2.47;;;17.60;74.50;;;;;;5115525;28;20450;-55
2022/07/07 03:34:59;;;;;;;3.30;2.13;;;17.60;75.00;;;;;;5115281;28;20454;-55
2022/07/07 03:37:26;;;;;;;4.17;2.47;;;17.60;74.80;;;;;;5114250;28;20446;-55
2022/07/07 03:39:55;;;;;;;3.13;2.30;;;17.50;75.40;;;;;;5114445;28;20562;-55
2022/07/07 03:42:22;;;;;;;3.17;2.20;;;17.50;75.60;;;;;;5114473;28;20454;-55
2022/07/07 03:44:49;;;;;;;2.33;2.00;;;17.50;75.00;;;;;;5114200;28;20495;-55
2022/07/07 03:47:17;;;;;;;3.30;2.37;;;17.50;75.80;;;;;;5114441;28;20803;-55
2022/07/07 03:49:44;;;;;;;6.87;2.30;;;17.60;75.50;;;;;;5114294;28;20458;-55
2022/07/07 03:52:11;;;;;;;10.70;2.63;;;17.60;75.30;;;;;;5114363;28;20940;-55
2022/07/07 03:54:38;;;;;;;3.40;2.37;;;17.50;75.50;;;;;;5114287;28;20450;-55
2022/07/07 03:57:07;;;;;;;6.67;2.53;;;17.50;76.00;;;;;;5114299;27;20442;-55
2022/07/07 03:59:34;;;;;;;3.80;2.47;;;17.60;75.80;;;;;;5114209;28;20840;-55
2022/07/07 04:02:01;;;;;;;2.93;2.63;;;17.60;76.10;;;;;;5114271;28;20469;-55
2022/07/07 04:04:29;;;;;;;3.50;2.60;;;17.70;75.90;;;;;;5114442;28;20550;-55
2022/07/07 04:06:56;;;;;;;2.43;1.90;;;17.80;75.70;;;;;;5113841;28;20444;-55
2022/07/07 04:09:23;;;;;;;2.83;2.27;;;17.70;76.00;;;;;;5113982;28;20497;-55
2022/07/07 04:11:50;;;;;;;4.00;2.17;;;17.70;75.70;;;;;;5113787;28;20932;-55
2022/07/07 04:14:18;;;;;;;4.43;2.73;;;17.70;75.80;;;;;;5114618;28;20443;-55
2022/07/07 04:16:45;;;;;;;4.13;2.57;;;17.70;75.90;;;;;;5113643;28;20484;-55
2022/07/07 04:19:12;;;;;;;6.20;2.37;;;17.60;76.20;;;;;;5113599;28;20457;-55
2022/07/07 04:21:40;;;;;;;4.90;2.47;;;17.50;76.50;;;;;;5114019;28;20863;-55
2022/07/07 04:24:07;;;;;;;2.50;2.30;;;17.50;77.40;;;;;;5114277;28;20435;-55
2022/07/07 04:26:34;;;;;;;2.80;2.00;;;17.60;77.00;;;;;;5113972;28;20447;-55
2022/07/07 04:29:02;;;;;;;3.50;2.40;;;17.70;77.00;;;;;;5113802;28;20493;-55
2022/07/07 04:31:30;;;;;;;2.67;2.47;;;17.90;76.30;;;;;;5113659;28;20815;-55
2022/07/07 04:33:57;;;;;;;2.90;2.70;;;17.80;76.20;;;;;;5113536;28;20446;-55
2022/07/07 04:36:24;;;;;;;5.57;2.27;;;17.80;76.20;;;;;;5113978;28;20496;-55
2022/07/07 04:38:52;;;;;;;2.97;2.50;;;17.80;77.80;;;;;;5117410;28;20525;-55
2022/07/07 04:41:19;;;;;;;2.87;2.37;;;17.80;76.80;;;;;;5117444;28;20472;-55
2022/07/07 04:43:46;;;;;;;3.10;2.40;;;17.90;76.40;;;;;;5117828;27;20442;-55
2022/07/07 04:46:13;;;;;;;2.93;2.40;;;18.00;76.50;;;;;;5117944;28;20534;-55
2022/07/07 04:48:42;;;;;;;4.27;2.50;;;18.00;76.80;;;;;;5117419;28;20481;-55
2022/07/07 04:51:09;;;;;;;3.40;2.40;;;18.10;76.00;;;;;;5117346;28;20462;-55
2022/07/07 04:53:36;;;;;;;3.93;2.57;;;18.10;76.10;;;;;;5117604;28;20537;-55
2022/07/07 04:56:04;;;;;;;6.50;2.50;;;18.00;75.70;;;;;;5117202;28;20542;-55
2022/07/07 04:58:32;;;;;;;2.67;2.40;;;17.90;76.80;;;;;;5117525;28;20442;-55
2022/07/07 05:00:59;;;;;;;4.80;2.37;;;17.80;76.90;;;;;;5117471;28;20557;-55
2022/07/07 05:03:26;;;;;;;4.67;2.80;;;17.80;77.00;;;;;;5117478;28;20533;-55
2022/07/07 05:05:54;;;;;;;2.33;2.13;;;17.80;77.30;;;;;;5117678;28;20435;-55
2022/07/07 05:08:22;;;;;;;3.03;2.73;;;17.80;78.50;;;;;;5117338;28;20918;-55
2022/07/07 05:10:49;;;;;;;3.33;2.37;;;17.70;76.60;;;;;;5117210;28;20474;-55
2022/07/07 05:13:16;;;;;;;3.80;2.50;;;17.60;77.50;;;;;;5117517;28;20806;-55
2022/07/07 05:15:43;;;;;;;3.10;2.50;;;17.60;78.40;;;;;;5116981;28;20541;-55
2022/07/07 05:18:11;;;;;;;3.40;2.73;;;17.60;78.00;;;;;;5117022;28;20957;-55
2022/07/07 05:20:38;;;;;;;3.20;2.87;;;17.70;78.10;;;;;;5117805;28;20463;-55
2022/07/07 05:23:07;;;;;;;2.77;2.43;;;17.90;78.80;;;;;;5116683;28;20961;-55
2022/07/07 05:25:34;;;;;;;5.53;2.90;;;17.90;79.00;;;;;;5116675;28;21013;-55
2022/07/07 05:28:01;;;;;;;3.93;3.63;;;17.80;78.00;;;;;;5116773;28;20533;-55
2022/07/07 05:30:28;;;;;;;5.20;2.40;;;17.90;77.80;;;;;;5116805;27;20462;-55
2022/07/07 05:32:56;;;;;;;2.80;2.20;;;17.80;77.80;;;;;;5116349;28;20984;-55
2022/07/07 05:35:23;;;;;;;3.77;2.10;;;17.80;78.20;;;;;;5116736;28;20455;-55
2022/07/07 05:37:50;;;;;;;2.33;2.13;;;17.80;79.00;;;;;;5116697;28;20478;-55
2022/07/07 05:40:19;;;;;;;4.27;2.43;;;18.00;79.10;;;;;;5116869;27;20458;-55
2022/07/07 05:42:46;;;;;;;3.47;2.20;;;18.00;78.30;;;;;;5116594;28;20860;-55
2022/07/07 05:45:13;;;;;;;4.33;2.70;;;18.10;79.10;;;;;;5116173;28;20997;-55
2022/07/07 05:47:41;;;;;;;2.60;2.10;;;18.00;79.00;;;;;;5115650;28;20423;-55
2022/07/07 05:50:09;;;;;;;2.73;2.47;;;18.00;78.30;;;;;;5115784;28;20996;-54
2022/07/07 05:52:36;;;;;;;2.87;2.20;;;18.10;77.80;;;;;;5116214;28;20430;-55
2022/07/07 05:55:04;;;;;;;8.50;2.17;;;18.10;78.40;;;;;;5115575;28;20537;-55
2022/07/07 05:57:32;;;;;;;3.27;2.70;;;;;;;;;;5115860;28;20537;-55
2022/07/07 06:00:00;;;;;;;2.43;2.23;;;18.30;77.70;;;;;;5115963;28;20494;-55
2022/07/07 06:02:27;;;;;;;5.40;2.10;;;18.40;77.70;;;;;;5116113;28;20470;-55
2022/07/07 06:04:54;;;;;;;4.03;1.90;;;18.50;77.70;;;;;;5115981;28;20486;-55
2022/07/07 06:07:22;;;;;;;3.00;2.33;;;18.60;77.30;;;;;;5115918;27;20431;-55
2022/07/07 06:09:49;;;;;;;6.20;2.53;;;18.60;76.80;;;;;;5115921;28;20534;-55
2022/07/07 06:12:16;;;;;;;6.90;2.87;;;18.70;77.40;;;;;;5115512;28;20453;-55
2022/07/07 06:14:45;;;;;;;2.63;2.27;;;18.80;77.00;;;;;;5115478;28;20482;-55
2022/07/07 06:17:12;;;;;;;2.53;2.33;;;19.00;77.00;;;;;;5115689;28;20565;-54
2022/07/07 06:19:39;;;;;;;6.60;2.23;;;19.20;77.00;;;;;;5115618;28;20903;-54
2022/07/07 06:22:06;;;;;;;3.53;2.90;;;19.40;76.90;;;;;;5115401;27;20533;-55
2022/07/07 06:24:34;;;;;;;3.13;2.63;;;19.60;76.70;;;;;;5115477;28;20479;-55
2022/07/07 06:27:01;;;;;;;2.53;2.33;;;19.70;77.90;;;;;;5115889;28;20861;-55
2022/07/07 06:29:28;;;;;;;4.20;2.50;;;19.80;76.30;;;;;;5115559;28;20885;-55
2022/07/07 06:31:57;;;;;;;2.73;2.53;;;19.90;76.60;;;;;;5115820;28;20522;-55
2022/07/07 06:34:24;;;;;;;3.10;2.77;;;20.00;76.10;;;;;;5115500;27;20500;-55
2022/07/07 06:36:51;;;;;;;6.70;4.00;;;20.00;75.90;;;;;;5115434;28;20457;-55
2022/07/07 06:39:19;;;;;;;5.10;2.60;;;20.10;75.20;;;;;;5115303;28;20466;-55
2022/07/07 06:41:46;;;;;;;4.37;2.60;;;20.10;74.60;;;;;;5115040;28;20454;-55
2022/07/07 06:44:14;;;;;;;4.90;2.43;;;20.30;75.20;;;;;;5115482;28;20458;-55
2022/07/07 06:46:41;;;;;;;4.03;3.07;;;20.40;75.70;;;;;;5115336;28;20446;-55
2022/07/07 06:49:09;;;;;;;6.27;2.20;;;20.40;76.20;;;;;;5114929;28;20585;-55
2022/07/07 06:51:37;;;;;;;7.00;2.77;;;20.70;75.80;;;;;;5115068;27;20442;-55
2022/07/07 06:54:04;;;;;;;6.03;3.27;;;20.80;74.80;;;;;;5114765;28;21024;-55
2022/07/07 06:56:31;;;;;;;5.70;2.90;;;20.70;74.20;;;;;;5114809;28;20482;-55
2022/07/07 06:58:58;;;;;;;3.30;2.33;;;20.70;74.90;;;;;;5114283;28;20438;-55
2022/07/07 07:01:25;;;;;;;3.10;2.40;;;20.80;74.80;;;;;;5114185;28;20550;-55
2022/07/07 07:03:53;;;;;;;4.50;2.57;;;20.70;74.20;;;;;;5115211;28;20427;-56
2022/07/07 07:06:21;;;;;;;4.80;2.40;;;21.10;75.30;;;;;;5115034;28;20526;-55
2022/07/07 07:08:49;;;;;;;5.50;2.40;;;21.20;74.30;;;;;;5114551;28;20535;-55
2022/07/07 07:11:16;;;;;;;3.57;2.40;;;21.30;74.10;;;;;;5114807;28;20474;-55
2022/07/07 07:13:47;;;;;;;4.03;2.93;;;21.60;76.00;;;;;;5114356;28;20481;-55
2022/07/07 07:16:14;;;;;;;5.43;2.87;;;21.80;74.00;;;;;;5114533;28;20557;-56
2022/07/07 07:18:41;;;;;;;2.87;2.33;;;21.50;73.20;;;;;;5114707;28;20446;-56
2022/07/07 07:21:10;;;;;;;2.40;2.20;;;21.50;74.60;;;;;;5114606;28;20447;-55
2022/07/07 07:23:39;;;;;;;6.20;2.43;;;21.50;74.10;;;;;;5114605;28;20446;-54
2022/07/07 07:26:07;;;;;;;4.40;2.57;;;21.30;74.60;;;;;;5114467;28;20811;-54
2022/07/07 07:28:35;;;;;;;2.87;2.20;;;21.20;74.80;;;;;;5113808;28;20451;-55
2022/07/07 07:31:03;;;;;;;7.80;2.73;;;21.20;74.50;;;;;;5113429;28;20493;-55
2022/07/07 07:33:30;;;;;;;2.47;2.27;;;21.30;74.80;;;;;;5113713;28;20537;-55
2022/07/07 07:35:58;;;;;;;2.53;2.33;;;21.30;75.70;;;;;;5113702;28;20886;-55
2022/07/07 07:38:25;;;;;;;3.53;2.53;;;21.40;74.90;;;;;;5113373;28;20527;-55
2022/07/07 07:40:54;;;;;;;4.10;2.70;;;21.50;76.30;;;;;;5113621;28;20833;-54
2022/07/07 07:43:22;;;;;;;4.50;2.70;;;21.60;74.90;;;;;;5113351;28;20458;-54
2022/07/07 07:45:49;;;;;;;4.60;2.73;;;21.60;74.50;;;;;;5114030;28;20485;-55
2022/07/07 07:48:16;;;;;;;5.00;2.87;;;21.60;76.30;;;;;;5113622;28;20450;-54
2022/07/07 07:50:43;;;;;;;4.70;2.70;;;21.80;75.50;;;;;;5113785;28;20838;-54
2022/07/07 07:53:10;;;;;;;4.10;2.90;;;21.60;75.10;;;;;;5113829;28;20552;-54
2022/07/07 07:55:38;;;;;;;4.33;2.60;;;21.40;75.60;;;;;;5113952;28;20450;-54
2022/07/07 07:58:07;;;;;;;5.23;2.50;;;21.10;76.20;;;;;;5114031;28;20501;-55
2022/07/07 08:00:34;;;;;;;2.83;2.53;;;21.10;78.10;;;;;;5113790;28;20545;-55
2022/07/07 08:03:01;;;;;;;2.87;2.40;;;21.20;77.60;;;;;;5113659;28;20533;-54
2022/07/07 08:05:29;;;;;;;6.60;2.87;;;21.10;76.50;;;;;;5113847;28;20493;-55
2022/07/07 08:07:57;;;;;;;4.97;2.67;;;21.00;77.40;;;;;;5113849;28;20447;-55
2022/07/07 08:10:24;;;;;;;3.00;2.37;;;20.90;76.70;;;;;;5113288;28;20493;-56
2022/07/07 08:12:52;;;;;;;4.00;2.97;;;20.90;77.20;;;;;;5113223;28;20443;-54
2022/07/07 08:15:21;;;;;;;3.43;2.70;;;20.90;78.10;;;;;;5113900;28;20538;-54
2022/07/07 08:17:49;;;;;;;3.20;2.90;;;20.90;77.40;;;;;;5113246;28;20467;-55
2022/07/07 08:20:16;;;;;;;3.40;3.17;;;21.00;77.20;;;;;;5113330;28;21034;-54
2022/07/07 08:22:43;;;;;;;4.70;2.90;;;21.00;77.20;;;;;;5113655;28;20442;-54
2022/07/07 08:25:11;;;;;;;3.00;2.70;;;21.00;77.80;;;;;;5113560;28;20438;-54
2022/07/07 08:27:38;;;;;;;3.87;3.47;;;20.90;78.30;;;;;;5113566;28;20449;-54
2022/07/07 08:30:08;;;;;;;4.20;3.17;;;20.80;78.40;;;;;;5113059;28;20988;-54
2022/07/07 08:32:37;;;;;;;2.73;2.53;;;21.00;79.00;;;;;;5113197;28;20450;-54
2022/07/07 08:35:04;;;;;;;3.73;3.00;;;21.10;79.10;;;;;;5113627;28;20454;-54
2022/07/07 08:37:31;;;;;;;4.03;2.87;;;21.20;79.60;;;;;;5113541;28;20454;-54
2022/07/07 08:39:59;;;;;;;8.63;2.83;;;21.10;79.20;;;;;;5113580;28;20469;-54
2022/07/07 08:42:26;;;;;;;4.30;3.27;;;21.10;79.40;;;;;;5113108;28;20507;-54
2022/07/07 08:44:53;;;;;;;6.20;2.93;;;21.00;79.40;;;;;;5113367;28;20468;-54
2022/07/07 08:47:21;;;;;;;6.60;3.20;;;21.10;80.30;;;;;;5113168;28;20469;-55
2022/07/07 08:49:49;;;;;;;4.20;3.33;;;21.30;80.20;;;;;;5113121;28;20482;-55
2022/07/07 08:52:17;;;;;;;9.77;3.60;;;21.10;80.30;;;;;;5113425;28;20423;-54
2022/07/07 08:54:44;;;;;;;8.53;4.03;;;21.10;80.50;;;;;;5113256;28;20457;-54
2022/07/07 08:57:11;;;;;;;6.07;5.50;;;21.10;81.50;;;;;;5112998;28;20447;-55
2022/07/07 08:59:39;;;;;;;4.37;3.97;;;22.00;82.70;;;;;;5112916;28;20469;-55
2022/07/07 09:02:06;;;;;;;4.37;3.80;;;22.70;79.70;;;;;;5113438;28;20461;-55
2022/07/07 09:04:33;;;;;;;3.27;2.97;;;22.80;79.50;;;;;;5113302;28;20976;-55
2022/07/07 09:07:04;;;;;;;5.33;3.33;;;23.20;80.50;;;;;;5113105;28;20482;-55
2022/07/07 09:09:44;;;;;;;5.53;3.93;;;23.90;79.50;;;;;;5112978;28;20560;-55
2022/07/07 09:12:13;;;;;;;5.67;4.00;;;23.60;78.50;;;;;;5112970;28;20427;-55
2022/07/07 09:14:42;;;;;;;4.50;3.43;;;24.30;77.60;;;;;;5112891;28;20537;-55
2022/07/07 09:17:31;;;;;;;4.60;4.30;;;24.40;77.30;;;;;;5112332;28;20557;-55
2022/07/07 09:20:03;;;;;;;4.10;3.80;;;23.40;78.90;;;;;;5108315;28;20470;-55
2022/07/07 09:22:49;;;;;;;4.43;4.03;;;22.60;79.30;;;;;;5112422;28;20435;-54
2022/07/07 09:25:18;;;;;;;4.60;4.20;;;22.30;81.60;;;;;;5116804;28;20596;-55
2022/07/07 09:27:57;;;;;;;2.93;2.60;;;21.90;82.60;;;;;;5116160;28;20545;-55
2022/07/07 09:30:29;;;;;;;3.10;2.70;;;22.10;84.00;;;;;;5116620;28;20485;-55
2022/07/07 09:32:57;;;;;;;4.53;2.87;;;22.20;84.90;;;;;;5116539;28;20449;-55
2022/07/07 09:38:14;;;;;;;4.10;2.23;;;22.00;85.80;;;;;;5116473;28;20402;-55
2022/07/07 09:40:55;;;;;;;6.17;3.30;;;21.50;87.20;;;;;;5116264;28;20469;-55
2022/07/07 09:43:22;;;;;;;2.47;2.27;;;21.50;88.00;;;;;;5116074;28;20467;-55
2022/07/07 09:46:11;;;;;;;3.60;3.10;;;21.50;89.10;;;;;;5116324;28;20439;-55
2022/07/07 09:48:39;;;;;;;3.83;2.77;;;21.50;89.00;;;;;;5116641;28;20454;-55
2022/07/07 09:51:31;;;;;;;3.13;2.43;;;21.20;90.00;;;;;;5116114;28;20995;-55
2022/07/07 09:54:03;;;;;;;5.60;2.53;;;21.10;90.30;;;;;;5101016;28;20843;-55
2022/07/07 09:56:32;;;;;;;3.43;2.87;;;21.10;92.00;;;;;;5116585;28;20455;-55
2022/07/07 09:59:00;;;;;;;2.30;2.20;;;21.00;90.90;;;;;;5116363;28;20848;-55
2022/07/07 10:01:34;;;;;;;8.93;3.33;;;21.00;89.40;;;;;;5116053;28;20434;-55
2022/07/07 10:04:03;;;;;;;3.43;2.97;;;21.00;90.10;;;;;;5116364;28;20431;-54
2022/07/07 10:06:31;;;;;;;3.30;3.00;;;20.80;89.70;;;;;;5116517;28;20439;-55
2022/07/07 10:09:02;;;;;;;3.50;2.57;;;21.00;90.10;;;;;;5116223;28;20446;-54
2022/07/07 10:11:36;;;;;;;5.80;3.10;;;21.10;89.80;;;;;;5115657;28;20549;-54
2022/07/07 10:14:10;;;;;;;3.00;2.70;;;21.00;89.90;;;;;;5115664;28;20430;-54
2022/07/07 10:16:38;;;;;;;2.63;2.40;;;21.20;89.90;;;;;;5115352;28;20485;-55
2022/07/07 10:19:11;;;;;;;4.97;2.90;;;21.40;89.80;;;;;;5115683;28;20423;-54
2022/07/07 10:21:42;;;;;;;4.30;2.33;;;21.50;89.20;;;;;;5115251;28;20913;-54
2022/07/07 10:24:14;;;;;;;3.13;2.60;;;21.70;90.20;;;;;;5116008;28;20479;-54
2022/07/07 10:26:43;;;;;;;5.37;3.17;;;21.90;89.50;;;;;;5116247;28;20502;-51
2022/07/07 10:29:11;;;;;;;3.10;2.80;;;22.20;89.50;;;;;;5115094;28;20562;-54
2022/07/07 10:31:39;;;;;;;5.27;2.90;;;22.10;88.90;;;;;;5115688;28;20475;-55
2022/07/07 10:34:08;;;;;;;3.20;2.90;;;22.20;88.60;;;;;;5115531;28;20857;-54
2022/07/07 10:37:04;;;;;;;2.80;2.50;;;21.90;88.10;;;;;;5115016;28;20435;-55
2022/07/07 10:39:41;;;;;;;4.67;3.30;;;21.90;88.50;;;;;;5115279;28;20494;-54
2022/07/07 10:42:25;;;;;;;7.50;3.50;;;21.90;89.60;;;;;;5115542;28;20435;-55
2022/07/07 10:44:54;;;;;;;5.40;2.50;;;22.20;88.50;;;;;;5115547;28;20455;-55
2022/07/07 10:47:32;;;;;;;2.97;2.77;;;22.40;87.80;;;;;;5115977;28;20442;-55
2022/07/07 10:50:02;;;;;;;2.73;2.33;;;22.40;87.60;;;;;;5114902;28;20565;-55
2022/07/07 10:52:39;;;;;;;2.93;2.70;;;22.50;87.10;;;;;;5114956;28;20535;-55
2022/07/07 10:55:09;;;;;;;2.57;2.37;;;22.50;87.50;;;;;;5115093;28;20521;-55
2022/07/07 10:57:42;;;;;;;2.40;2.20;;;22.40;87.00;;;;;;5115892;27;20541;-55
2022/07/07 11:00:15;;;;;;;3.67;2.50;;;22.20;87.40;;;;;;5114889;27;20477;-55
2022/07/07 11:02:47;;;;;;;3.57;3.27;;;22.00;88.30;;;;;;5114822;28;20913;-55
2022/07/07 11:05:29;;;;;;;2.70;2.50;;;22.00;88.10;;;;;;5115078;28;20972;-55
2022/07/07 11:08:18;;;;;;;2.27;2.07;;;21.80;88.40;;;;;;5114761;28;20561;-54
2022/07/07 11:10:50;;;;;;;2.50;2.30;;;21.70;88.60;;;;;;5114193;28;20482;-54
2022/07/07 11:13:21;;;;;;;4.10;2.23;;;21.50;88.90;;;;;;5114558;27;20459;-54
2022/07/07 11:15:50;;;;;;;3.90;2.30;;;21.50;89.70;;;;;;5114578;28;20475;-54
2022/07/07 11:18:19;;;;;;;4.57;2.60;;;21.40;90.10;;;;;;5114621;28;20427;-54
2022/07/07 11:20:57;;;;;;;6.50;2.13;;;21.50;90.20;;;;;;5113989;28;20465;-54
2022/07/07 11:23:28;;;;;;;5.83;2.57;;;21.60;90.00;;;;;;5113998;28;20806;-54
2022/07/07 11:25:58;;;;;;;3.00;2.70;;;21.80;90.40;;;;;;5113964;28;20443;-55
2022/07/07 11:28:27;;;;;;;4.73;2.50;;;21.80;90.10;;;;;;5114493;28;20502;-55
2022/07/07 11:31:08;;;;;;;3.13;2.60;;;21.60;89.70;;;;;;5114103;28;20477;-55
2022/07/07 11:33:36;;;;;;;2.90;2.70;;;21.30;90.00;;;;;;5114027;28;20443;-55
2022/07/07 11:36:16;;;;;;;3.40;2.20;;;21.40;90.10;;;;;;5114094;28;20454;-55
2022/07/07 11:38:45;;;;;;;3.60;2.20;;;21.70;90.10;;;;;;5114392;28;20514;-55
2022/07/07 11:41:14;;;;;;;2.90;2.57;;;21.70;89.20;;;;;;5113869;28;20454;-55
2022/07/07 11:43:41;;;;;;;6.20;2.47;;;21.60;89.50;;;;;;5114279;28;20446;-55
2022/07/07 11:46:09;;;;;;;4.80;2.70;;;21.60;89.80;;;;;;5114020;28;20446;-55
2022/07/07 11:48:38;;;;;;;3.10;2.80;;;21.60;89.80;;;;;;5114465;28;20474;-55
2022/07/07 11:51:06;;;;;;;3.47;2.70;;;21.60;89.30;;;;;;5113680;28;20518;-55
2022/07/07 11:53:34;;;;;;;4.20;2.70;;;21.70;90.40;;;;;;5113645;28;20519;-54
2022/07/07 11:56:02;;;;;;;3.83;2.73;;;21.50;89.60;;;;;;5114013;28;20511;-55
2022/07/07 11:58:30;;;;;;;8.20;3.73;;;21.40;90.00;;;;;;5113681;28;20450;-55
2022/07/07 12:00:58;;;;;;;6.33;2.80;;;21.60;89.90;;;;;;5113556;28;20458;-55
2022/07/07 12:03:30;;;;;;;7.53;3.10;;;21.70;90.00;;;;;;5113997;28;20469;-55
2022/07/07 12:05:58;;;;;;;7.43;2.47;;;21.60;90.40;;;;;;5114113;28;20917;-55
2022/07/07 12:08:36;;;;;;;4.37;3.00;;;21.40;89.10;;;;;;5113730;28;20478;-55
2022/07/07 12:11:05;;;;;;;4.40;2.87;;;21.50;90.10;;;;;;5113456;28;20478;-55
2022/07/07 12:13:34;;;;;;;3.80;2.77;;;21.50;90.20;;;;;;5113858;28;20529;-55
2022/07/07 12:16:04;;;;;;;3.10;2.63;;;21.50;90.00;;;;;;5113600;28;20474;-55
2022/07/07 12:18:39;;;;;;;3.93;3.03;;;21.60;90.00;;;;;;5113522;28;20469;-55
2022/07/07 12:21:08;;;;;;;2.60;2.40;;;21.60;89.50;;;;;;5113156;28;20458;-55
2022/07/07 12:23:40;;;;;;;3.90;3.13;;;21.80;89.80;;;;;;5113092;28;20458;-55
2022/07/07 12:26:14;;;;;;;2.70;2.50;;;21.80;89.10;;;;;;5113402;28;20435;-55
2022/07/07 12:28:43;;;;;;;3.53;2.93;;;21.80;88.50;;;;;;5113564;28;20426;-55
2022/07/07 12:31:16;;;;;;;6.97;3.20;;;21.50;89.70;;;;;;5113080;28;20525;-55
2022/07/07 12:33:44;;;;;;;3.10;2.80;;;21.50;89.30;;;;;;5113425;28;20514;-55
2022/07/07 12:36:14;;;;;;;3.33;3.03;;;21.60;89.40;;;;;;5113583;28;20514;-54
2022/07/07 12:38:44;;;;;;;3.10;2.73;;;21.70;88.50;;;;;;5113089;28;20446;-55
2022/07/07 12:41:22;;;;;;;4.70;2.80;;;21.70;88.40;;;;;;5113668;28;20554;-55
2022/07/07 12:43:51;;;;;;;6.93;2.50;;;21.60;88.50;;;;;;5113498;28;20468;-55
2022/07/07 12:46:18;;;;;;;4.73;2.80;;;21.70;89.30;;;;;;5113025;28;20530;-55
2022/07/07 12:48:48;;;;;;;4.70;3.30;;;21.80;90.40;;;;;;5112656;28;20438;-55
2022/07/07 12:51:16;;;;;;;3.73;3.43;;;21.50;90.70;;;;;;5113301;28;20517;-55
2022/07/07 12:53:44;;;;;;;3.73;3.00;;;21.30;91.40;;;;;;5112931;28;20452;-55
2022/07/07 12:56:15;;;;;;;3.97;2.90;;;21.30;91.40;;;;;;5113008;28;20454;-55
2022/07/07 12:58:47;;;;;;;4.40;3.10;;;21.40;91.10;;;;;;5114691;28;20427;-55
2022/07/07 13:01:19;;;;;;;5.33;2.93;;;21.40;92.10;;;;;;5116646;28;20964;-55
2022/07/07 13:03:49;;;;;;;3.77;3.10;;;21.50;91.50;;;;;;5116845;28;20487;-55